Time;durP1;ratioP1;P1;durP2;ratioP2;P2;SDS_P1;SDS_P2;PMS_P1;PMS_P2;Temp;Humidity;BMP_temperature;BMP_pressure;BME280_temperature;BME280_humidity;BME280_pressure;Samples;Min_cycle;Max_cycle;Signal;HPM_P1;HPM_P2
2023/01/03 00:01:13;;;;;;;0.75;0.68;;;;;;;;;;5028100;28;20464;-49
2023/01/03 00:03:39;;;;;;;0.65;0.65;;;;;;;;;;5028845;28;20075;-47
2023/01/03 00:06:05;;;;;;;0.90;0.70;;;;;;;;;;5030066;28;20040;-49
2023/01/03 00:08:31;;;;;;;0.85;0.77;;;;;;;;;;5029221;28;20037;-47
2023/01/03 00:10:57;;;;;;;0.80;0.80;;;;;;;;;;5029553;28;20037;-47
2023/01/03 00:13:23;;;;;;;0.60;0.60;;;;;;;;;;5029731;28;20033;-50
2023/01/03 00:15:49;;;;;;;0.68;0.68;;;;;;;;;;5028887;28;20029;-49
2023/01/03 00:18:15;;;;;;;0.77;0.77;;;;;;;;;;5029186;28;20064;-47
2023/01/03 00:20:41;;;;;;;0.60;0.57;;;;;;;;;;5029110;28;20022;-50
2023/01/03 00:23:07;;;;;;;0.63;0.45;;;;;;;;;;5029397;28;20033;-50
2023/01/03 00:25:33;;;;;;;1.17;0.70;;;;;;;;;;5029482;28;20105;-48
2023/01/03 00:27:59;;;;;;;0.80;0.75;;;;;;;;;;5028967;28;20037;-48
2023/01/03 00:30:26;;;;;;;0.60;0.60;;;;;;;;;;5029345;28;20022;-49
2023/01/03 00:32:52;;;;;;;1.08;0.75;;;;;;;;;;5028589;28;20120;-48
2023/01/03 00:35:18;;;;;;;0.98;0.73;;;;;;;;;;5029314;28;20039;-48
2023/01/03 00:37:44;;;;;;;0.73;0.60;;;;;;;;;;5028506;28;20044;-48
2023/01/03 00:40:10;;;;;;;0.60;0.60;;;;;;;;;;5028545;28;20026;-47
2023/01/03 00:43:27;;;;;;;0.63;0.50;;;;;;;;;;5029142;28;20615;-50
2023/01/03 00:45:22;;;;;;;0.47;0.47;;;;;;;;;;5028876;28;20156;-51
2023/01/03 00:47:48;;;;;;;1.10;0.70;;;;;;;;;;5028201;28;20041;-49
2023/01/03 00:50:14;;;;;;;0.65;0.50;;;;;;;;;;5028741;28;20041;-49
2023/01/03 00:52:41;;;;;;;0.60;0.60;;;;;;;;;;5028532;28;20087;-48
2023/01/03 00:55:07;;;;;;;0.45;0.43;;;;;;;;;;5028641;28;20029;-50
2023/01/03 00:57:33;;;;;;;0.50;0.50;;;;;;;;;;5028395;28;20033;-48
2023/01/03 00:59:59;;;;;;;0.40;0.40;;;;;;;;;;5028615;28;20104;-48
2023/01/03 01:02:25;;;;;;;0.98;0.60;;;;;;;;;;5028765;28;20037;-47
2023/01/03 06:12:29;;;;;;;3.17;2.55;;;;;;;;;;5019610;28;20075;-46
2023/01/03 06:14:55;;;;;;;3.33;2.83;;;;;;;;;;5017400;28;20033;-49
2023/01/03 06:20:06;;;;;;;2.90;2.55;;;;;;;;;;5006283;28;20515;-47
2023/01/03 06:22:33;;;;;;;4.88;2.55;;;;;;;;;;5005984;28;20109;-46
2023/01/03 06:24:59;;;;;;;2.60;2.25;;;;;;;;;;5006390;28;20465;-46
2023/01/03 06:27:25;;;;;;;2.47;2.13;;;;;;;;;;5012062;28;20041;-49
2023/01/03 06:29:52;;;;;;;2.50;2.30;;;;;;;;;;5025409;28;20025;-47
2023/01/03 06:32:18;;;;;;;2.25;2.05;;;;;;;;;;5027509;28;20033;-47
2023/01/03 06:34:44;;;;;;;2.45;2.15;;;;;;;;;;5027375;28;20799;-47
2023/01/03 06:37:10;;;;;;;2.50;2.17;;;;;;;;;;5025732;28;20096;-46
2023/01/03 06:39:37;;;;;;;2.45;2.22;;;;;;;;;;5008983;28;20413;-49
2023/01/03 06:53:11;;;;;;;2.63;2.00;;;;;;;;;;5027106;28;20028;-47
2023/01/03 06:53:11;;;;;;;2.08;1.70;;;;;;;;;;5007679;28;20045;-47
2023/01/03 06:55:37;;;;;;;2.08;1.80;;;;;;;;;;5015952;28;20022;-48
2023/01/03 06:58:03;;;;;;;2.28;1.80;;;;;;;;;;5026497;28;20125;-47
2023/01/03 07:00:29;;;;;;;1.85;1.67;;;;;;;;;;5026793;28;20026;-46
2023/01/03 07:02:55;;;;;;;3.08;1.85;;;;;;;;;;5023099;28;20511;-47
2023/01/03 07:05:21;;;;;;;3.08;2.30;;;;;;;;;;5030846;28;20495;-48
2023/01/03 07:07:48;;;;;;;3.00;2.20;;;;;;;;;;5017306;28;20647;-50
2023/01/03 07:10:14;;;;;;;2.83;1.80;;;;;;;;;;5020098;28;20029;-46
2023/01/03 07:15:25;;;;;;;3.00;1.85;;;;;;;;;;5011851;28;20159;-47
2023/01/03 07:17:51;;;;;;;2.65;2.08;;;;;;;;;;5010882;28;20477;-50
2023/01/03 07:20:17;;;;;;;2.63;2.03;;;;;;;;;;5030755;28;20048;-47
2023/01/03 07:22:43;;;;;;;3.45;2.30;;;;;;;;;;5031125;28;20593;-50
2023/01/03 07:25:09;;;;;;;3.65;2.25;;;;;;;;;;5012608;28;20034;-50
2023/01/03 07:27:35;;;;;;;2.75;1.95;;;;;;;;;;5011269;28;20038;-47
2023/01/03 07:30:01;;;;;;;2.95;1.92;;;;;;;;;;5026092;28;20535;-47
2023/01/03 07:32:27;;;;;;;2.83;2.20;;;;;;;;;;5031072;28;20523;-46
2023/01/03 07:34:53;;;;;;;3.00;2.15;;;;;;;;;;5029271;28;20029;-47
2023/01/03 07:37:19;;;;;;;2.58;1.90;;;;;;;;;;5028670;28;20037;-48
2023/01/03 07:39:45;;;;;;;3.13;2.10;;;;;;;;;;5023770;28;20100;-47
2023/01/03 07:44:56;;;;;;;2.60;1.75;;;;;;;;;;5029302;28;20064;-47
2023/01/03 07:47:22;;;;;;;2.30;1.70;;;;;;;;;;5022348;28;20496;-49
2023/01/03 07:49:48;;;;;;;2.25;1.60;;;;;;;;;;5017264;28;20391;-47
2023/01/03 07:52:14;;;;;;;4.28;2.42;;;;;;;;;;5018844;28;20033;-49
2023/01/03 07:54:40;;;;;;;5.03;2.83;;;;;;;;;;5025910;28;20064;-47
2023/01/03 07:57:06;;;;;;;4.72;2.63;;;;;;;;;;5014542;28;20042;-49
2023/01/03 07:59:32;;;;;;;3.75;2.40;;;;;;;;;;5022228;28;20049;-47
2023/01/03 08:01:58;;;;;;;4.18;2.35;;;;;;;;;;5023177;28;20056;-47
2023/01/03 08:04:24;;;;;;;3.20;2.00;;;;;;;;;;5009453;28;20018;-48
2023/01/03 08:06:50;;;;;;;3.05;1.60;;;;;;;;;;5009080;28;20105;-47
2023/01/03 08:14:45;;;;;;;;;;;;;;;;;;5015523;28;20053;-48
2023/01/03 08:17:11;;;;;;;4.65;2.20;;;;;;;;;;5015181;28;19916;-48
2023/01/03 08:19:37;;;;;;;3.50;1.98;;;;;;;;;;5020517;28;20538;-49
2023/01/03 08:22:03;;;;;;;3.53;2.05;;;;;;;;;;5023643;28;20021;-46
2023/01/03 08:24:29;;;;;;;3.78;1.88;;;;;;;;;;5031698;28;20045;-47
2023/01/03 08:26:55;;;;;;;3.72;1.85;;;;;;;;;;5028761;28;20459;-47
2023/01/03 08:29:21;;;;;;;4.47;2.03;;;;;;;;;;5010003;28;20034;-47
2023/01/03 08:31:50;;;;;;;3.88;1.90;;;;;;;;;;5020046;28;20103;-47
2023/01/03 08:34:17;;;;;;;7.95;3.30;;;;;;;;;;5027950;28;20036;-48
2023/01/03 08:36:46;;;;;;;9.85;3.97;;;;;;;;;;5049386;28;20104;-48
2023/01/03 08:39:14;;;;;;;7.28;3.83;;;;;;;;;;5029195;28;20053;-47
2023/01/03 08:41:46;;;;;;;5.35;2.55;;;;;;;;;;5026048;28;20078;-48
2023/01/03 08:44:12;;;;;;;6.10;2.90;;;;;;;;;;5029322;28;20032;-47
2023/01/03 08:46:40;;;;;;;6.07;3.13;;;;;;;;;;5042236;28;20495;-47
2023/01/03 08:49:06;;;;;;;7.85;3.30;;;;;;;;;;5033744;28;20109;-50
2023/01/03 08:51:32;;;;;;;7.30;3.58;;;;;;;;;;5034337;28;20026;-47
2023/01/03 08:53:58;;;;;;;6.38;2.90;;;;;;;;;;5031252;28;20026;-47
2023/01/03 08:56:24;;;;;;;4.65;2.30;;;;;;;;;;5047533;28;20032;-47
2023/01/03 08:58:50;;;;;;;3.30;2.03;;;;;;;;;;5048957;28;20674;-49
2023/01/03 09:01:16;;;;;;;4.00;2.22;;;;;;;;;;5039417;28;20033;-48
2023/01/03 09:03:42;;;;;;;3.75;2.33;;;;;;;;;;5029172;28;20197;-46
2023/01/03 09:06:08;;;;;;;5.00;2.80;;;;;;;;;;5023354;28;20072;-48
2023/01/03 09:08:34;;;;;;;3.47;2.25;;;;;;;;;;5019369;28;20029;-46
2023/01/03 09:11:05;;;;;;;3.95;2.35;;;;;;;;;;5011819;28;20117;-48
2023/01/03 09:13:31;;;;;;;5.78;2.42;;;;;;;;;;5007296;28;20433;-47
2023/01/03 09:16:04;;;;;;;3.53;1.90;;;;;;;;;;5024146;28;20416;-47
2023/01/03 09:18:30;;;;;;;2.65;1.60;;;;;;;;;;5027344;28;20316;-48
2023/01/03 09:20:56;;;;;;;2.75;1.60;;;;;;;;;;5027148;28;20025;-46
2023/01/03 09:23:22;;;;;;;9.82;2.22;;;;;;;;;;5026945;28;20091;-49
2023/01/03 09:25:48;;;;;;;7.28;1.98;;;;;;;;;;5026364;28;20033;-47
2023/01/03 09:28:14;;;;;;;2.47;1.20;;;;;;;;;;5026626;28;20021;-47
2023/01/03 09:30:40;;;;;;;2.83;1.38;;;;;;;;;;5026932;28;20503;-48
2023/01/03 09:33:09;;;;;;;3.17;1.80;;;;;;;;;;5027267;28;20293;-47
2023/01/03 09:35:35;;;;;;;1.75;1.58;;;;;;;;;;5026693;28;20056;-47
2023/01/03 09:38:01;;;;;;;2.35;1.20;;;;;;;;;;5026939;28;20474;-48
2023/01/03 09:40:29;;;;;;;1.02;0.90;;;;;;;;;;5027269;28;20415;-49
2023/01/03 09:43:14;;;;;;;1.50;1.30;;;;;;;;;;5026752;28;20021;-47
2023/01/03 09:45:43;;;;;;;2.45;1.55;;;;;;;;;;5027347;28;20033;-46
2023/01/03 09:48:14;;;;;;;1.95;1.75;;;;;;;;;;5026433;28;20476;-48
2023/01/03 09:50:41;;;;;;;1.98;1.35;;;;;;;;;;5023349;28;20528;-46
2023/01/03 10:04:15;;;;;;;;;;;;;;;;;;5027278;28;20035;-47
2023/01/03 10:06:56;;;;;;;1.17;1.00;;;;;;;;;;5026459;28;20342;-48
2023/01/03 10:09:40;;;;;;;1.02;0.93;;;;;;;;;;5026424;28;20036;-49
2023/01/03 10:12:06;;;;;;;;;;;;;;;;;;5016070;28;20041;-50
2023/01/03 10:14:51;;;;;;;1.40;1.30;;;;;;;;;;5021320;28;19959;-47
2023/01/03 10:17:37;;;;;;;1.20;1.10;;;;;;;;;;5007943;28;20113;-48
2023/01/03 10:20:03;;;;;;;0.95;0.85;;;;;;;;;;5013958;28;20025;-49
2023/01/03 10:22:30;;;;;;;1.35;1.10;;;;;;;;;;5018040;28;20034;-46
2023/01/03 10:24:56;;;;;;;1.27;0.90;;;;;;;;;;5022463;28;20500;-47
2023/01/03 10:27:24;;;;;;;1.33;1.23;;;;;;;;;;5025079;28;20092;-46
2023/01/03 10:29:51;;;;;;;1.67;1.13;;;;;;;;;;5013811;28;20034;-47
2023/01/03 10:32:18;;;;;;;1.80;1.30;;;;;;;;;;5023487;28;20045;-47
2023/01/03 10:34:44;;;;;;;1.27;1.10;;;;;;;;;;5024322;28;20033;-46
2023/01/03 10:37:17;;;;;;;0.90;0.77;;;;;;;;;;5026019;28;20444;-46
2023/01/03 10:39:44;;;;;;;1.43;1.30;;;;;;;;;;5029229;28;20124;-47
2023/01/03 10:42:18;;;;;;;4.35;1.90;;;;;;;;;;5024886;28;20291;-47
2023/01/03 10:44:59;;;;;;;3.90;1.75;;;;;;;;;;5011588;28;20604;-47
2023/01/03 10:47:26;;;;;;;4.03;2.47;;;;;;;;;;5015273;28;20516;-46
2023/01/03 10:49:58;;;;;;;3.85;2.13;;;;;;;;;;5012184;28;20034;-46
2023/01/03 10:52:25;;;;;;;3.17;1.60;;;;;;;;;;5011802;28;20466;-48
2023/01/03 10:54:54;;;;;;;4.15;2.08;;;;;;;;;;5025154;28;20043;-48
2023/01/03 10:57:38;;;;;;;4.63;2.15;;;;;;;;;;5028242;28;20061;-46
2023/01/03 11:00:23;;;;;;;3.42;2.13;;;;;;;;;;5011339;28;20022;-47
2023/01/03 11:02:50;;;;;;;4.18;2.25;;;;;;;;;;5012678;28;20107;-47
2023/01/03 11:05:17;;;;;;;3.83;1.95;;;;;;;;;;5038282;28;20029;-49
2023/01/03 11:07:44;;;;;;;2.17;1.45;;;;;;;;;;5048254;28;20025;-48
2023/01/03 11:10:17;;;;;;;2.22;1.40;;;;;;;;;;5030985;28;20105;-46
2023/01/03 11:12:47;;;;;;;2.65;1.90;;;;;;;;;;5030941;28;20152;-48
2023/01/03 11:15:18;;;;;;;5.28;3.13;;;;;;;;;;5030645;28;20037;-51
2023/01/03 11:17:55;;;;;;;5.47;2.90;;;;;;;;;;5016327;28;20123;-47
2023/01/03 11:20:25;;;;;;;4.78;2.08;;;;;;;;;;5011054;28;20025;-45
2023/01/03 11:23:01;;;;;;;3.33;2.05;;;;;;;;;;5019599;28;20033;-47
2023/01/03 11:25:27;;;;;;;2.20;1.60;;;;;;;;;;5045869;28;20025;-47
2023/01/03 11:28:02;;;;;;;1.95;1.27;;;;;;;;;;5038362;28;20172;-47
2023/01/03 11:30:28;;;;;;;1.08;0.88;;;;;;;;;;5029034;28;20076;-46
2023/01/03 11:33:00;;;;;;;1.35;1.10;;;;;;;;;;5021163;28;20191;-49
2023/01/03 11:35:44;;;;;;;0.88;0.80;;;;;;;;;;5029716;28;20029;-49
2023/01/03 11:38:10;;;;;;;;;;;;;;;;;;5037820;28;20090;-47
2023/01/03 11:40:51;;;;;;;1.10;0.80;;;;;;;;;;5035637;28;19913;-47
2023/01/03 11:43:24;;;;;;;0.93;0.82;;;;;;;;;;5030933;28;20037;-46
2023/01/03 11:46:05;;;;;;;1.58;0.60;;;;;;;;;;5029102;28;20018;-48
2023/01/03 11:48:40;;;;;;;0.75;0.70;;;;;;;;;;5013058;28;20057;-48
2023/01/03 11:51:06;;;;;;;0.88;0.77;;;;;;;;;;5010000;28;20088;-48
2023/01/03 11:53:36;;;;;;;0.80;0.70;;;;;;;;;;5010381;28;20057;-46
2023/01/03 11:56:03;;;;;;;1.17;1.00;;;;;;;;;;5010134;28;20034;-47
2023/01/03 11:58:53;;;;;;;1.10;0.90;;;;;;;;;;5010758;28;20026;-47
2023/01/03 12:01:19;;;;;;;0.98;0.80;;;;;;;;;;5034390;28;20037;-48
2023/01/03 12:03:45;;;;;;;1.35;0.90;;;;;;;;;;5035161;28;20116;-46
2023/01/03 12:06:26;;;;;;;0.60;0.60;;;;;;;;;;5030104;28;20117;-47
2023/01/03 12:08:59;;;;;;;0.60;0.60;;;;;;;;;;5034340;28;20487;-47
2023/01/03 12:11:28;;;;;;;0.60;0.60;;;;;;;;;;5048021;28;20104;-48
2023/01/03 12:14:10;;;;;;;0.60;0.60;;;;;;;;;;5040161;28;20491;-47
2023/01/03 12:16:47;;;;;;;0.68;0.68;;;;;;;;;;5034969;28;20033;-49
2023/01/03 12:19:13;;;;;;;0.50;0.50;;;;;;;;;;5043863;28;20025;-48
2023/01/03 12:21:52;;;;;;;0.40;0.40;;;;;;;;;;5029036;28;20393;-46
2023/01/03 12:24:18;;;;;;;0.30;0.30;;;;;;;;;;5029583;28;20025;-46
2023/01/03 12:26:47;;;;;;;0.68;0.50;;;;;;;;;;5019603;28;20048;-51
2023/01/03 12:29:19;;;;;;;0.30;0.30;;;;;;;;;;5009476;28;20026;-47
2023/01/03 12:31:53;;;;;;;0.43;0.43;;;;;;;;;;5009501;28;20030;-47
2023/01/03 12:34:24;;;;;;;0.30;0.30;;;;;;;;;;5013188;28;20413;-48
2023/01/03 12:37:17;;;;;;;0.40;0.40;;;;;;;;;;5009510;28;20030;-48
2023/01/03 12:39:48;;;;;;;0.40;0.40;;;;;;;;;;5004923;28;20072;-47
2023/01/03 12:42:49;;;;;;;0.35;0.35;;;;;;;;;;5010601;28;20013;-51
2023/01/03 12:45:24;;;;;;;0.30;0.30;;;;;;;;;;4958019;28;20129;-46
2023/01/03 12:47:56;;;;;;;0.40;0.40;;;;;;;;;;5000597;28;20038;-48
2023/01/03 12:50:42;;;;;;;0.30;0.30;;;;;;;;;;5009422;28;20174;-46
2023/01/03 12:53:20;;;;;;;0.40;0.40;;;;;;;;;;5001855;28;20042;-48
2023/01/03 12:55:58;;;;;;;0.43;0.40;;;;;;;;;;5009193;28;20053;-46
2023/01/03 12:58:24;;;;;;;0.30;0.30;;;;;;;;;;5019241;28;20101;-46
2023/01/03 13:00:58;;;;;;;0.82;0.55;;;;;;;;;;5028834;28;20117;-50
2023/01/03 13:03:30;;;;;;;0.60;0.40;;;;;;;;;;5029241;28;20064;-46
2023/01/03 13:06:02;;;;;;;0.60;0.60;;;;;;;;;;5029053;28;20056;-47
2023/01/03 13:08:34;;;;;;;0.43;0.40;;;;;;;;;;5023532;28;20095;-47
2023/01/03 13:11:06;;;;;;;0.30;0.30;;;;;;;;;;5008599;28;20033;-49
2023/01/03 13:13:32;;;;;;;0.57;0.57;;;;;;;;;;5009418;28;20030;-47
2023/01/03 13:15:59;;;;;;;0.50;0.50;;;;;;;;;;5015762;28;20037;-46
2023/01/03 13:18:30;;;;;;;0.68;0.68;;;;;;;;;;5028839;28;20108;-46
2023/01/03 13:20:56;;;;;;;0.47;0.47;;;;;;;;;;5028686;28;20041;-48
2023/01/03 13:23:40;;;;;;;0.50;0.50;;;;;;;;;;5018804;28;20030;-49
2023/01/03 13:26:09;;;;;;;;;;;;;;;;;;5010794;28;20516;-49
2023/01/03 13:28:35;;;;;;;0.50;0.50;;;;;;;;;;5028419;28;19935;-50
2023/01/03 13:31:15;;;;;;;0.50;0.50;;;;;;;;;;5027908;28;20059;-45
2023/01/03 13:33:52;;;;;;;0.40;0.40;;;;;;;;;;5027654;28;20044;-47
2023/01/03 13:36:19;;;;;;;0.55;0.40;;;;;;;;;;5027060;28;20045;-47
2023/01/03 13:38:45;;;;;;;0.50;0.50;;;;;;;;;;5011513;28;20065;-50
2023/01/03 13:41:26;;;;;;;0.50;0.50;;;;;;;;;;5008300;28;20021;-49
2023/01/03 13:43:53;;;;;;;0.38;0.38;;;;;;;;;;5008391;28;20026;-49
2023/01/03 13:46:18;;;;;;;0.40;0.40;;;;;;;;;;5008259;28;20030;-48
2023/01/03 13:49:11;;;;;;;0.50;0.50;;;;;;;;;;5008326;28;20037;-47
2023/01/03 13:51:40;;;;;;;0.70;0.60;;;;;;;;;;5019524;28;20124;-48
2023/01/03 13:54:12;;;;;;;0.57;0.52;;;;;;;;;;5016761;28;20061;-47
2023/01/03 13:56:44;;;;;;;0.30;0.30;;;;;;;;;;5016287;28;20029;-49
2023/01/03 13:59:13;;;;;;;0.30;0.30;;;;;;;;;;5019831;28;20353;-46
2023/01/03 14:01:58;;;;;;;0.40;0.40;;;;;;;;;;5021423;28;20120;-46
2023/01/03 14:04:24;;;;;;;1.88;0.70;;;;;;;;;;5011318;28;20044;-48
2023/01/03 14:06:52;;;;;;;6.90;1.52;;;;;;;;;;5009116;28;20030;-46
2023/01/03 14:09:27;;;;;;;3.65;1.02;;;;;;;;;;5007754;28;20472;-49
2023/01/03 14:11:52;;;;;;;;;;;;;;;;;;5007961;28;20033;-49
2023/01/03 14:14:21;;;;;;;0.90;0.60;;;;;;;;;;5014914;28;20371;-49
2023/01/03 14:16:49;;;;;;;1.13;0.60;;;;;;;;;;5027505;28;20025;-49
2023/01/03 14:19:21;;;;;;;0.65;0.50;;;;;;;;;;5027548;28;20036;-47
2023/01/03 14:21:54;;;;;;;0.50;0.50;;;;;;;;;;5027428;28;20515;-50
2023/01/03 14:24:30;;;;;;;0.52;0.45;;;;;;;;;;5027337;28;20021;-46
2023/01/03 14:27:04;;;;;;;0.40;0.40;;;;;;;;;;5027824;28;20025;-46
2023/01/03 14:29:30;;;;;;;0.30;0.30;;;;;;;;;;5044156;28;20067;-47
2023/01/03 14:31:58;;;;;;;0.40;0.40;;;;;;;;;;5047571;28;20029;-47
2023/01/03 14:34:28;;;;;;;0.52;0.52;;;;;;;;;;5042750;28;20021;-46
2023/01/03 14:36:59;;;;;;;0.32;0.32;;;;;;;;;;5011956;28;20034;-49
2023/01/03 14:39:31;;;;;;;0.30;0.30;;;;;;;;;;5027492;28;20040;-46
2023/01/03 14:41:59;;;;;;;0.40;0.30;;;;;;;;;;5027579;28;20022;-45
2023/01/03 14:44:27;;;;;;;0.30;0.30;;;;;;;;;;5027785;28;20029;-48
2023/01/03 14:46:55;;;;;;;0.38;0.38;;;;;;;;;;5034672;28;20116;-49
2023/01/03 14:49:42;;;;;;;0.40;0.40;;;;;;;;;;5033022;28;20087;-46
2023/01/03 14:52:13;;;;;;;0.30;0.30;;;;;;;;;;5023850;28;20194;-48
2023/01/03 14:54:42;;;;;;;0.50;0.50;;;;;;;;;;5025255;28;20040;-48
2023/01/03 14:57:16;;;;;;;0.50;0.50;;;;;;;;;;5027281;28;20496;-48
2023/01/03 14:59:42;;;;;;;0.60;0.60;;;;;;;;;;5033112;28;20018;-46
2023/01/03 15:02:10;;;;;;;1.02;0.77;;;;;;;;;;5027168;28;20044;-48
2023/01/03 15:04:41;;;;;;;0.68;0.60;;;;;;;;;;5016885;28;20026;-49
2023/01/03 15:07:07;;;;;;;0.57;0.50;;;;;;;;;;5007543;28;20053;-48
2023/01/03 15:09:34;;;;;;;0.80;0.50;;;;;;;;;;5007329;28;20034;-47
2023/01/03 15:12:03;;;;;;;0.38;0.38;;;;;;;;;;5007388;28;20046;-46
2023/01/03 15:14:30;;;;;;;0.40;0.40;;;;;;;;;;5017915;28;20033;-46
2023/01/03 15:17:11;;;;;;;0.75;0.45;;;;;;;;;;5016366;28;20030;-47
2023/01/03 15:19:40;;;;;;;0.50;0.50;;;;;;;;;;5029897;28;20025;-48
2023/01/03 15:22:14;;;;;;;0.50;0.50;;;;;;;;;;5031807;28;20034;-48
2023/01/03 15:24:41;;;;;;;0.75;0.50;;;;;;;;;;5024950;28;20025;-48
2023/01/03 15:27:25;;;;;;;1.17;0.50;;;;;;;;;;5023163;28;20064;-47
2023/01/03 15:29:51;;;;;;;;;;;;;;;;;;5011277;28;20039;-46
2023/01/03 15:32:18;;;;;;;0.50;0.40;;;;;;;;;;5022385;28;19909;-47
2023/01/03 15:34:44;;;;;;;0.82;0.60;;;;;;;;;;5029325;28;20036;-48
2023/01/03 15:37:19;;;;;;;0.55;0.50;;;;;;;;;;5016974;28;20112;-46
2023/01/03 15:39:44;;;;;;;;;;;;;;;;;;5028074;28;20610;-47
2023/01/03 15:44:56;;;;;;;0.88;0.65;;;;;;;;;;5037984;28;20053;-45
2023/01/03 15:47:25;;;;;;;0.70;0.50;;;;;;;;;;5002920;28;20389;-47
2023/01/03 15:49:54;;;;;;;0.85;0.52;;;;;;;;;;5010575;28;20538;-46
2023/01/03 15:52:20;;;;;;;0.63;0.60;;;;;;;;;;5010447;28;20037;-47
2023/01/03 15:54:47;;;;;;;0.60;0.60;;;;;;;;;;5016717;28;20025;-47
2023/01/03 15:57:19;;;;;;;0.50;0.50;;;;;;;;;;5030135;28;20050;-48
2023/01/03 15:59:48;;;;;;;0.95;0.68;;;;;;;;;;5030115;28;20025;-46
2023/01/03 16:02:17;;;;;;;0.60;0.50;;;;;;;;;;5030064;28;20017;-47
2023/01/03 16:04:48;;;;;;;0.55;0.55;;;;;;;;;;5028323;28;20030;-47
2023/01/03 16:07:14;;;;;;;1.33;0.93;;;;;;;;;;5029780;28;20049;-46
2023/01/03 16:09:40;;;;;;;2.63;1.52;;;;;;;;;;5030022;28;20060;-48
2023/01/03 16:12:12;;;;;;;2.38;1.45;;;;;;;;;;5029946;28;20021;-46
2023/01/03 16:14:40;;;;;;;1.75;1.20;;;;;;;;;;5029638;28;20475;-47
2023/01/03 16:17:07;;;;;;;1.58;1.15;;;;;;;;;;5017053;28;20030;-48
2023/01/03 16:19:33;;;;;;;1.40;0.95;;;;;;;;;;5008965;28;20026;-49
2023/01/03 16:22:01;;;;;;;1.25;1.10;;;;;;;;;;5009533;28;20161;-47
2023/01/03 16:24:27;;;;;;;1.20;1.02;;;;;;;;;;5025528;28;20029;-47
2023/01/03 16:26:54;;;;;;;1.48;1.10;;;;;;;;;;5020908;28;20544;-47
2023/01/03 16:29:21;;;;;;;1.00;0.90;;;;;;;;;;5017824;28;20415;-48
2023/01/03 16:31:47;;;;;;;1.00;0.80;;;;;;;;;;5029263;28;20033;-45
2023/01/03 16:34:18;;;;;;;1.25;1.02;;;;;;;;;;5025550;28;20029;-49
2023/01/03 16:36:46;;;;;;;0.90;0.80;;;;;;;;;;5030733;28;20041;-47
2023/01/03 16:39:16;;;;;;;1.02;0.80;;;;;;;;;;5010877;28;20025;-48
2023/01/03 16:41:43;;;;;;;1.77;0.90;;;;;;;;;;5010289;28;20137;-45
2023/01/03 16:44:09;;;;;;;1.00;0.85;;;;;;;;;;5023520;28;20030;-47
2023/01/03 16:46:37;;;;;;;1.33;0.90;;;;;;;;;;5009643;28;20416;-50
2023/01/03 16:49:04;;;;;;;0.90;0.68;;;;;;;;;;5013685;28;20055;-48
2023/01/03 16:51:33;;;;;;;0.90;0.77;;;;;;;;;;5023104;28;20029;-47
2023/01/03 16:53:59;;;;;;;2.50;1.42;;;;;;;;;;5016660;28;20816;-47
2023/01/03 16:56:26;;;;;;;5.40;2.80;;;;;;;;;;5016318;28;20484;-45
2023/01/03 16:58:52;;;;;;;5.82;3.33;;;;;;;;;;5022364;28;20030;-45
2023/01/03 17:01:19;;;;;;;8.50;4.30;;;;;;;;;;5010012;28;20030;-46
2023/01/03 17:03:45;;;;;;;9.43;4.45;;;;;;;;;;5010224;28;20029;-47
2023/01/03 17:06:28;;;;;;;11.30;6.10;;;;;;;;;;5016577;28;20026;-46
2023/01/03 17:08:54;;;;;;;10.60;5.55;;;;;;;;;;5025079;28;20372;-45
2023/01/03 17:11:20;;;;;;;9.18;4.60;;;;;;;;;;5027863;28;20365;-45
2023/01/03 17:13:47;;;;;;;8.32;3.75;;;;;;;;;;5029863;28;20484;-46
2023/01/03 17:42:15;;;;;;;6.43;3.65;;;;;;;;;;6079894;23;20021;-48
2023/01/03 17:50:19;;;;;;;5.53;3.05;;;;;;;;;;4968766;28;20045;-48
2023/01/03 17:52:45;;;;;;;3.67;2.10;;;;;;;;;;4968270;28;20050;-48
2023/01/03 17:55:25;;;;;;;2.90;2.33;;;;;;;;;;4967616;28;20023;-51
2023/01/03 17:57:52;;;;;;;2.80;2.13;;;;;;;;;;4966607;28;20122;-48
2023/01/03 18:00:20;;;;;;;3.70;2.38;;;;;;;;;;4968291;28;20425;-49
2023/01/03 18:02:47;;;;;;;6.22;3.45;;;;;;;;;;4967794;28;20035;-50
2023/01/03 18:05:14;;;;;;;11.38;5.97;;;;;;;;;;4968794;28;20027;-49
2023/01/03 18:07:40;;;;;;;18.85;8.98;;;;;;;;;;4978058;28;20493;-48
2023/01/03 18:10:08;;;;;;;20.55;10.38;;;;;;;;;;4960864;28;20027;-47
2023/01/03 18:12:34;;;;;;;17.15;9.43;;;;;;;;;;4965547;28;20097;-50
2023/01/03 18:15:00;;;;;;;14.52;7.60;;;;;;;;;;4966034;28;20026;-50
2023/01/03 18:17:26;;;;;;;12.10;6.80;;;;;;;;;;4967350;28;20053;-50
2023/01/03 18:19:52;;;;;;;11.68;6.38;;;;;;;;;;4968434;28;20090;-51
2023/01/03 18:22:19;;;;;;;7.70;4.55;;;;;;;;;;4969004;28;20121;-48
2023/01/03 18:24:45;;;;;;;6.88;4.20;;;;;;;;;;4967258;28;20031;-49
2023/01/03 18:27:11;;;;;;;5.88;3.72;;;;;;;;;;4966939;28;20395;-49
2023/01/03 18:29:38;;;;;;;4.68;3.20;;;;;;;;;;4965729;28;20027;-49
2023/01/03 18:32:17;;;;;;;4.47;3.05;;;;;;;;;;4967232;28;20043;-49
2023/01/03 18:34:43;;;;;;;4.15;2.75;;;;;;;;;;4968914;28;20501;-48
2023/01/03 18:37:09;;;;;;;3.13;2.20;;;;;;;;;;4967957;28;20023;-47
2023/01/03 18:39:35;;;;;;;2.30;1.88;;;;;;;;;;4966648;28;20045;-48
2023/01/03 18:44:48;;;;;;;5.57;4.20;;;;;;;;;;4968355;28;20480;-47
2023/01/03 18:47:14;;;;;;;6.53;4.72;;;;;;;;;;4987413;28;20029;-51
2023/01/03 18:49:40;;;;;;;5.25;3.75;;;;;;;;;;4974603;28;20027;-48
2023/01/03 18:52:06;;;;;;;4.55;3.42;;;;;;;;;;4972480;28;20034;-48
2023/01/03 18:54:36;;;;;;;4.22;3.03;;;;;;;;;;4949323;28;20059;-47
2023/01/03 18:57:02;;;;;;;5.00;2.75;;;;;;;;;;4974412;28;20110;-50
2023/01/03 18:59:28;;;;;;;3.55;2.60;;;;;;;;;;4973546;28;20029;-49
2023/01/03 19:01:54;;;;;;;3.70;2.40;;;;;;;;;;4968424;28;20069;-47
2023/01/03 19:04:20;;;;;;;3.92;2.85;;;;;;;;;;4969248;28;20027;-49
2023/01/03 19:06:49;;;;;;;3.72;2.50;;;;;;;;;;4970188;28;20053;-49
2023/01/03 19:09:22;;;;;;;3.83;2.67;;;;;;;;;;4970128;28;20034;-51
2023/01/03 19:11:49;;;;;;;4.47;2.88;;;;;;;;;;4970272;28;20057;-47
2023/01/03 19:14:15;;;;;;;3.75;2.22;;;;;;;;;;4968552;28;20518;-47
2023/01/03 19:16:41;;;;;;;4.35;2.42;;;;;;;;;;4969725;28;20039;-48
2023/01/03 19:19:07;;;;;;;4.45;2.92;;;;;;;;;;4969706;28;20771;-50
2023/01/03 19:21:38;;;;;;;5.60;3.30;;;;;;;;;;4970511;28;20037;-49
2023/01/03 19:24:05;;;;;;;4.90;3.30;;;;;;;;;;4968933;28;20556;-49
2023/01/03 19:26:31;;;;;;;4.32;2.88;;;;;;;;;;4970615;28;20078;-48
2023/01/03 19:29:00;;;;;;;4.90;2.88;;;;;;;;;;4970757;28;20054;-49
2023/01/03 19:31:28;;;;;;;4.90;3.15;;;;;;;;;;4971767;28;20085;-47
2023/01/03 19:33:54;;;;;;;4.97;3.17;;;;;;;;;;4969889;28;20605;-47
2023/01/03 19:36:21;;;;;;;3.90;2.88;;;;;;;;;;4969986;28;20065;-48
2023/01/03 19:38:48;;;;;;;5.32;3.08;;;;;;;;;;4970927;28;21110;-47
2023/01/03 19:41:19;;;;;;;4.13;2.92;;;;;;;;;;4970411;28;20034;-51
2023/01/03 19:43:45;;;;;;;4.78;3.20;;;;;;;;;;4968704;28;20039;-49
2023/01/03 19:46:15;;;;;;;4.13;2.85;;;;;;;;;;4969518;28;20041;-51
2023/01/03 19:48:41;;;;;;;5.38;3.58;;;;;;;;;;4970050;28;20366;-50
2023/01/03 19:51:08;;;;;;;5.72;3.42;;;;;;;;;;4952035;28;20030;-48
2023/01/03 19:53:35;;;;;;;4.78;3.38;;;;;;;;;;4970693;28;20085;-49
2023/01/03 19:56:02;;;;;;;5.72;3.63;;;;;;;;;;4970866;28;20041;-48
2023/01/03 19:58:32;;;;;;;5.30;3.10;;;;;;;;;;4970282;28;20370;-48
2023/01/03 20:00:59;;;;;;;4.57;3.15;;;;;;;;;;4969476;28;20062;-48
2023/01/03 20:03:32;;;;;;;3.58;2.55;;;;;;;;;;4969884;28;20058;-49
2023/01/03 20:05:59;;;;;;;3.40;2.20;;;;;;;;;;4969883;28;20033;-49
2023/01/03 20:08:25;;;;;;;4.43;2.70;;;;;;;;;;4969815;28;20088;-48
2023/01/03 20:10:52;;;;;;;6.55;4.00;;;;;;;;;;4968335;28;20075;-47
2023/01/03 20:13:20;;;;;;;6.00;3.92;;;;;;;;;;4969716;28;20109;-50
2023/01/03 20:15:47;;;;;;;6.35;4.25;;;;;;;;;;4968911;28;20034;-50
2023/01/03 20:18:23;;;;;;;6.05;3.92;;;;;;;;;;4970036;28;20062;-48
2023/01/03 20:20:50;;;;;;;5.40;3.63;;;;;;;;;;4969303;28;20027;-47
2023/01/03 20:23:16;;;;;;;4.90;3.30;;;;;;;;;;4970449;28;20521;-48
2023/01/03 20:25:43;;;;;;;5.25;3.17;;;;;;;;;;4968679;28;20030;-47
2023/01/03 20:28:15;;;;;;;5.70;3.33;;;;;;;;;;4970086;28;20038;-49
2023/01/03 20:30:41;;;;;;;5.38;3.30;;;;;;;;;;4968097;28;20030;-49
2023/01/03 20:33:07;;;;;;;5.57;3.20;;;;;;;;;;4969982;28;20034;-47
2023/01/03 20:35:34;;;;;;;4.70;3.13;;;;;;;;;;4966735;28;20026;-47
2023/01/03 20:38:00;;;;;;;3.95;3.03;;;;;;;;;;4968161;28;20035;-47
2023/01/03 20:40:26;;;;;;;6.25;3.58;;;;;;;;;;4968635;28;20035;-48
2023/01/03 20:42:53;;;;;;;3.80;2.60;;;;;;;;;;4967586;28;20081;-48
2023/01/03 20:45:20;;;;;;;4.03;2.45;;;;;;;;;;4967946;28;20477;-48
2023/01/03 20:47:48;;;;;;;3.75;2.58;;;;;;;;;;4964797;28;20652;-48
2023/01/03 20:50:15;;;;;;;3.78;2.75;;;;;;;;;;4948800;29;20037;-49
2023/01/03 20:52:43;;;;;;;3.35;2.45;;;;;;;;;;4950442;28;20022;-50
2023/01/03 20:55:12;;;;;;;3.10;2.47;;;;;;;;;;4966885;28;20041;-47
2023/01/03 20:57:38;;;;;;;4.43;2.50;;;;;;;;;;4966912;28;20061;-48
2023/01/03 21:00:04;;;;;;;3.45;2.47;;;;;;;;;;4967465;28;20085;-50
2023/01/03 21:02:31;;;;;;;3.47;2.50;;;;;;;;;;4966664;28;20035;-50
2023/01/03 21:04:57;;;;;;;3.28;2.42;;;;;;;;;;4967290;28;20031;-48
2023/01/03 21:08:52;;;;;;;3.65;2.50;;;;;;;;;;4967412;28;20086;-48
2023/01/03 21:10:43;;;;;;;3.90;2.78;;;;;;;;;;4977604;28;20054;-47
2023/01/03 21:13:10;;;;;;;5.40;2.78;;;;;;;;;;4950102;28;20046;-49
2023/01/03 21:15:37;;;;;;;3.00;2.30;;;;;;;;;;4967311;28;20026;-48